createdAt,value
2022-08-29T00:02:15.410Z,25.00
2022-08-29T00:04:49.390Z,24.49
2022-08-29T00:07:19.131Z,24.35
2022-08-29T00:09:52.845Z,24.63
2022-08-29T00:12:25.462Z,24.67
2022-08-29T00:14:59.979Z,24.62
2022-08-29T00:17:29.277Z,24.15
2022-08-29T00:20:05.948Z,24.33
2022-08-29T00:22:36.342Z,24.72
2022-08-29T00:25:09.727Z,24.40
2022-08-29T00:27:40.636Z,24.25
2022-08-29T00:30:17.489Z,24.23
2022-08-29T00:32:47.728Z,24.66
2022-08-29T00:35:21.947Z,23.93
2022-08-29T00:37:55.122Z,24.09
2022-08-29T00:40:28.675Z,24.45
2022-08-29T00:43:00.681Z,23.96
2022-08-29T00:45:32.934Z,24.04
2022-08-29T00:48:15.113Z,23.82
2022-08-29T00:50:53.123Z,24.03
2022-08-29T00:53:29.999Z,23.96
2022-08-29T00:56:00.546Z,24.25
2022-08-29T00:58:32.659Z,24.21
2022-08-29T01:01:05.260Z,24.25
2022-08-29T01:03:36.039Z,24.24
2022-08-29T01:06:14.660Z,23.99
2022-08-29T01:08:43.305Z,24.38
2022-08-29T01:11:32.973Z,24.49
2022-08-29T01:14:02.222Z,24.35
2022-08-29T01:16:31.977Z,24.44
2022-08-29T01:19:06.029Z,24.59
2022-08-29T01:21:44.364Z,24.53
2022-08-29T01:24:15.529Z,24.61
2022-08-29T01:26:47.488Z,24.45
2022-08-29T01:29:16.058Z,24.51
2022-08-29T01:31:56.679Z,24.43
2022-08-29T01:34:29.767Z,24.11
2022-08-29T01:37:01.004Z,24.34
2022-08-29T01:39:32.904Z,24.60
2022-08-29T01:42:05.270Z,24.49
2022-08-29T01:44:33.694Z,24.34
2022-08-29T01:47:05.311Z,24.43
2022-08-29T01:49:37.798Z,24.28
2022-08-29T01:52:10.078Z,24.33
2022-08-29T01:54:41.309Z,24.23
2022-08-29T01:57:13.074Z,24.01
2022-08-29T01:59:44.445Z,24.16
2022-08-29T02:02:24.248Z,23.90
2022-08-29T02:04:56.468Z,23.75
2022-08-29T02:07:25.576Z,23.75
2022-08-29T02:09:55.320Z,23.79
2022-08-29T02:12:23.337Z,23.93
2022-08-29T02:14:52.146Z,23.93
2022-08-29T02:17:21.073Z,23.96
2022-08-29T02:19:49.139Z,23.91
2022-08-29T02:22:19.449Z,24.06
2022-08-29T02:24:49.456Z,24.05
2022-08-29T02:27:18.032Z,23.95
2022-08-29T02:29:46.177Z,23.93
2022-08-29T02:32:18.083Z,23.88
2022-08-29T02:34:49.256Z,23.62
2022-08-29T02:37:21.356Z,23.76
2022-08-29T02:39:50.988Z,23.70
2022-08-29T02:42:24.093Z,23.62
2022-08-29T02:45:01.899Z,23.70
2022-08-29T02:47:38.986Z,23.56
2022-08-29T02:50:11.359Z,23.48
2022-08-29T02:52:45.540Z,23.49
2022-08-29T02:55:18.849Z,23.65
2022-08-29T02:57:50.822Z,23.47
2022-08-29T03:00:23.377Z,23.71
2022-08-29T03:02:53.708Z,23.48
2022-08-29T03:05:23.820Z,23.34
2022-08-29T03:07:52.624Z,23.31
2022-08-29T03:10:21.741Z,23.10
2022-08-29T03:12:50.566Z,23.27
2022-08-29T03:15:19.864Z,23.20
2022-08-29T03:17:48.332Z,23.12
2022-08-29T03:20:18.672Z,23.01
2022-08-29T03:22:47.887Z,22.70
2022-08-29T03:25:16.511Z,22.59
2022-08-29T03:27:44.820Z,22.85
2022-08-29T03:30:15.141Z,22.96
2022-08-29T03:32:44.386Z,22.52
2022-08-29T03:35:16.103Z,22.62
2022-08-29T03:37:44.202Z,22.51
2022-08-29T03:40:13.429Z,22.66
2022-08-29T03:42:43.125Z,22.88
2022-08-29T03:45:14.057Z,22.65
2022-08-29T03:47:43.032Z,22.85
2022-08-29T03:50:13.141Z,22.73
2022-08-29T03:52:44.378Z,22.65
2022-08-29T03:55:13.128Z,22.89
2022-08-29T03:57:41.521Z,22.70
2022-08-29T04:00:13.820Z,22.97
2022-08-29T04:02:45.257Z,22.98
2022-08-29T04:05:15.374Z,22.65
2022-08-29T04:07:57.404Z,22.76
2022-08-29T04:10:32.895Z,22.88
2022-08-29T04:13:02.322Z,23.10
2022-08-29T04:15:34.974Z,22.50
2022-08-29T04:18:07.093Z,22.94
2022-08-29T04:20:38.655Z,22.95
2022-08-29T04:23:08.095Z,23.00
2022-08-29T04:25:37.768Z,22.86
2022-08-29T04:28:08.718Z,22.88
2022-08-29T04:30:40.538Z,22.77
2022-08-29T04:33:09.388Z,22.83
2022-08-29T04:35:47.400Z,22.87
2022-08-29T04:38:16.639Z,22.92
2022-08-29T04:40:45.163Z,23.04
2022-08-29T04:43:15.164Z,22.94
2022-08-29T04:45:43.956Z,22.64
2022-08-29T04:48:11.907Z,22.98
2022-08-29T04:50:46.621Z,22.73
2022-08-29T04:53:18.332Z,23.01
2022-08-29T04:56:06.522Z,22.65
2022-08-29T04:58:44.855Z,23.06
2022-08-29T05:01:19.827Z,22.96
2022-08-29T05:03:57.059Z,23.05
2022-08-29T05:06:33.048Z,23.00
2022-08-29T05:09:13.068Z,23.31
2022-08-29T05:11:43.758Z,23.29
2022-08-29T05:14:17.946Z,23.49
2022-08-29T05:16:58.367Z,23.55
2022-08-29T05:19:34.606Z,23.81
2022-08-29T05:22:07.308Z,23.52
2022-08-29T05:24:37.908Z,22.99
2022-08-29T05:27:18.751Z,23.52
2022-08-29T05:29:49.610Z,23.52
2022-08-29T05:32:24.813Z,23.66
2022-08-29T05:34:56.331Z,23.57
2022-08-29T05:37:25.764Z,23.64
2022-08-29T05:39:54.187Z,23.83
2022-08-29T05:42:23.014Z,23.75
2022-08-29T05:44:52.105Z,23.79
2022-08-29T05:47:20.634Z,23.85
2022-08-29T05:49:49.324Z,24.19
2022-08-29T05:52:20.653Z,24.03
2022-08-29T05:54:48.772Z,24.23
2022-08-29T05:57:20.552Z,24.39
2022-08-29T05:59:50.236Z,24.27
2022-08-29T06:02:19.150Z,24.46
2022-08-29T06:04:47.874Z,24.63
2022-08-29T06:07:15.810Z,24.51
2022-08-29T06:09:44.610Z,24.68
2022-08-29T06:12:15.581Z,24.69
2022-08-29T06:14:50.555Z,24.72
2022-08-29T06:17:19.198Z,24.84
2022-08-29T06:19:50.434Z,24.74
2022-08-29T06:22:22.595Z,24.94
2022-08-29T06:24:55.067Z,24.95
2022-08-29T06:27:28.963Z,24.99
2022-08-29T06:30:01.751Z,24.72
2022-08-29T06:32:30.218Z,24.97
2022-08-29T06:35:01.016Z,25.08
2022-08-29T06:37:31.253Z,25.11
2022-08-29T06:41:12.073Z,25.22
2022-08-29T06:55:42.309Z,25.81
2022-08-29T07:39:18.748Z,27.56
2022-08-29T07:42:28.108Z,27.56
2022-08-29T07:44:56.268Z,27.60
2022-08-29T07:47:27.229Z,27.62
2022-08-29T07:49:56.187Z,27.64
2022-08-29T07:52:45.460Z,27.73
2022-08-29T07:55:22.335Z,27.87
2022-08-29T07:58:04.954Z,27.64
2022-08-29T08:00:34.278Z,27.94
2022-08-29T08:03:24.728Z,28.14
2022-08-29T08:05:54.055Z,28.23
2022-08-29T08:08:23.195Z,28.29
2022-08-29T08:11:20.725Z,28.48
2022-08-29T08:14:09.520Z,28.53
2022-08-29T08:16:38.736Z,28.80
2022-08-29T08:19:15.756Z,28.66
2022-08-29T08:21:49.694Z,28.85
2022-08-29T08:24:56.041Z,28.90
2022-08-29T08:27:24.512Z,28.97
2022-08-29T08:29:55.572Z,29.13
2022-08-29T08:32:24.920Z,29.17
2022-08-29T08:35:04.197Z,29.43
2022-08-29T08:37:34.128Z,28.84
2022-08-29T08:40:23.269Z,29.29
2022-08-29T08:42:52.493Z,29.28
2022-08-29T08:46:01.614Z,29.56
2022-08-29T08:49:08.268Z,29.54
2022-08-29T08:52:04.419Z,29.85
2022-08-29T08:55:01.763Z,30.09
2022-08-29T08:58:52.994Z,30.15
2022-08-29T09:01:49.884Z,30.30
2022-08-29T09:04:34.143Z,30.39
2022-08-29T09:08:14.990Z,30.59
2022-08-29T09:11:09.636Z,30.54
2022-08-29T09:17:36.419Z,30.22
2022-08-29T09:23:26.475Z,29.96
2022-08-29T09:26:07.057Z,30.30
2022-08-29T09:28:56.636Z,30.14
2022-08-29T09:31:34.266Z,30.32
2022-08-29T09:34:15.272Z,30.21
2022-08-29T09:36:51.813Z,30.06
2022-08-29T09:43:14.211Z,30.51
2022-08-29T09:46:07.336Z,30.32
2022-08-29T09:49:22.867Z,30.95
2022-08-29T09:53:01.245Z,31.03
2022-08-29T11:00:43.893Z,32.94
2022-08-29T11:04:24.536Z,32.88
2022-08-29T11:07:31.644Z,33.09
2022-08-29T11:10:40.821Z,33.03
2022-08-29T11:13:34.310Z,33.37
2022-08-29T12:04:58.814Z,33.12
2022-08-29T12:07:49.170Z,33.19
2022-08-29T12:10:55.664Z,33.39
2022-08-29T12:23:11.214Z,33.25
2022-08-29T12:26:43.880Z,32.95
2022-08-29T12:29:44.491Z,33.14
2022-08-29T12:32:47.090Z,33.22
2022-08-29T12:35:55.766Z,33.64
2022-08-29T12:45:12.517Z,33.14
2022-08-29T13:20:41.132Z,35.25
2022-08-29T13:23:31.343Z,34.92
2022-08-29T13:26:11.977Z,34.78
2022-08-29T13:28:53.872Z,34.51
2022-08-29T13:31:34.863Z,34.45
2022-08-29T13:34:11.039Z,34.42
2022-08-29T13:36:59.271Z,34.47
2022-08-29T13:39:41.598Z,34.36
2022-08-29T13:42:15.560Z,34.48
2022-08-29T13:44:47.527Z,34.52
2022-08-29T13:47:25.095Z,34.52
2022-08-29T13:50:01.385Z,34.40
2022-08-29T13:52:31.636Z,34.17
2022-08-29T13:55:02.749Z,34.26
2022-08-29T13:57:31.743Z,34.59
2022-08-29T13:59:59.842Z,34.25
2022-08-29T14:02:28.764Z,33.62
2022-08-29T14:05:04.121Z,34.56
2022-08-29T14:07:41.400Z,34.20
2022-08-29T14:10:32.546Z,34.50
2022-08-29T14:13:12.387Z,34.15
2022-08-29T14:15:48.755Z,34.27
2022-08-29T14:18:17.206Z,34.26
2022-08-29T14:20:48.386Z,34.49
2022-08-29T14:23:23.151Z,34.65
2022-08-29T14:26:08.669Z,34.75
2022-08-29T14:28:47.972Z,34.89
2022-08-29T14:31:33.443Z,34.87
2022-08-29T14:34:11.188Z,35.11
2022-08-29T14:36:48.324Z,34.85
2022-08-29T14:39:16.577Z,35.01
2022-08-29T14:42:02.682Z,35.17
2022-08-29T14:44:40.930Z,35.36
2022-08-29T14:47:16.124Z,35.46
2022-08-29T14:49:48.633Z,35.26
2022-08-29T14:52:29.887Z,35.18
2022-08-29T14:55:17.159Z,35.42
2022-08-29T14:57:53.598Z,35.48
2022-08-29T15:00:28.662Z,35.37
2022-08-29T15:03:03.471Z,35.31
2022-08-29T15:05:43.002Z,35.07
2022-08-29T15:08:19.360Z,34.82
2022-08-29T15:10:55.542Z,34.49
2022-08-29T15:13:24.225Z,34.78
2022-08-29T15:15:54.186Z,34.78
2022-08-29T15:19:53.380Z,34.76
2022-08-29T15:23:00.349Z,34.83
2022-08-29T15:26:37.403Z,34.88
2022-08-29T15:33:08.322Z,34.48
2022-08-29T15:36:29.855Z,34.62
2022-08-29T15:39:44.842Z,34.50
2022-08-29T15:42:47.533Z,34.52
2022-08-29T15:45:50.862Z,34.59
2022-08-29T15:49:06.985Z,34.67
2022-08-29T15:55:19.692Z,33.67
2022-08-29T15:58:32.318Z,33.75
2022-08-29T16:01:46.099Z,33.56
2022-08-29T16:04:57.773Z,33.71
2022-08-29T16:08:17.657Z,33.28
2022-08-29T16:11:19.817Z,33.41
2022-08-29T16:20:56.695Z,33.21
2022-08-29T16:24:03.238Z,33.34
2022-08-29T16:27:02.533Z,33.33
2022-08-29T16:30:20.406Z,33.10
2022-08-29T16:33:20.369Z,33.11
2022-08-29T16:36:44.865Z,33.29
2022-08-29T16:39:47.602Z,32.89
2022-08-29T16:42:55.385Z,33.03
2022-08-29T16:45:49.462Z,32.81
2022-08-29T16:48:44.674Z,32.57
2022-08-29T16:51:38.655Z,32.49
2022-08-29T16:54:34.568Z,31.76
2022-08-29T16:57:52.945Z,31.86
2022-08-29T17:00:53.207Z,31.85
2022-08-29T17:03:42.218Z,31.66
2022-08-29T17:06:47.873Z,31.91
2022-08-29T17:09:43.874Z,31.54
2022-08-29T17:12:37.696Z,31.41
2022-08-29T17:15:16.646Z,31.52
2022-08-29T17:18:00.041Z,31.30
2022-08-29T17:20:53.682Z,31.03
2022-08-29T17:23:35.563Z,31.06
2022-08-29T17:26:24.629Z,30.89
2022-08-29T17:29:13.099Z,30.72
2022-08-29T17:32:41.464Z,30.96
2022-08-29T17:35:25.948Z,30.76
2022-08-29T17:38:05.867Z,30.77
2022-08-29T17:40:49.094Z,30.67
2022-08-29T17:43:40.668Z,30.61
2022-08-29T17:46:15.299Z,30.62
2022-08-29T17:48:52.205Z,30.51
2022-08-29T17:54:20.843Z,30.32
2022-08-29T17:57:07.691Z,30.30
2022-08-29T17:59:41.457Z,29.94
2022-08-29T18:02:26.334Z,29.99
2022-08-29T18:05:07.376Z,30.15
2022-08-29T18:07:44.467Z,29.88
2022-08-29T18:10:34.696Z,30.04
2022-08-29T18:13:09.928Z,29.82
2022-08-29T18:15:46.372Z,29.77
2022-08-29T18:18:26.713Z,29.74
2022-08-29T18:21:07.480Z,29.29
2022-08-29T18:23:41.824Z,29.59
2022-08-29T18:26:24.332Z,29.49
2022-08-29T18:29:07.065Z,29.43
2022-08-29T18:31:45.632Z,29.08
2022-08-29T18:34:30.212Z,29.11
2022-08-29T18:37:16.589Z,28.98
2022-08-29T18:39:52.816Z,28.64
2022-08-29T18:42:40.428Z,28.42
2022-08-29T18:45:13.941Z,28.69
2022-08-29T18:47:49.003Z,28.75
2022-08-29T18:50:37.298Z,28.75
2022-08-29T18:53:21.136Z,28.97
2022-08-29T18:56:03.628Z,28.75
2022-08-29T18:58:47.044Z,28.94
2022-08-29T19:01:30.450Z,28.83
2022-08-29T19:04:11.966Z,28.59
2022-08-29T19:06:54.991Z,28.96
2022-08-29T19:09:31.788Z,28.61
2022-08-29T19:12:15.487Z,28.65
2022-08-29T19:14:57.590Z,28.71
2022-08-29T19:17:45.478Z,28.55
2022-08-29T19:20:39.828Z,28.77
2022-08-29T19:23:12.100Z,28.40
2022-08-29T19:25:46.591Z,28.35
2022-08-29T19:28:23.788Z,28.08
2022-08-29T19:30:54.695Z,28.48
2022-08-29T19:33:37.449Z,28.31
2022-08-29T19:36:21.703Z,28.50
2022-08-29T19:38:52.913Z,28.68
2022-08-29T19:41:35.080Z,28.73
2022-08-29T19:44:12.867Z,28.52
2022-08-29T19:46:53.457Z,28.59
2022-08-29T19:49:30.866Z,28.39
2022-08-29T19:52:15.016Z,28.27
2022-08-29T19:54:51.459Z,28.26
2022-08-29T19:57:40.827Z,28.23
2022-08-29T20:00:21.929Z,28.19
2022-08-29T20:03:00.015Z,28.26
2022-08-29T20:05:30.992Z,27.94
2022-08-29T20:08:10.646Z,27.80
2022-08-29T20:11:01.660Z,27.78
2022-08-29T20:13:35.770Z,27.92
2022-08-29T20:16:14.337Z,27.93
2022-08-29T20:18:52.927Z,27.49
2022-08-29T20:21:29.576Z,27.64
2022-08-29T20:24:08.091Z,27.51
2022-08-29T20:26:43.247Z,27.48
2022-08-29T20:29:30.386Z,27.46
2022-08-29T20:32:14.827Z,27.76
2022-08-29T20:34:55.643Z,27.71
2022-08-29T20:37:28.824Z,27.45
2022-08-29T20:40:00.384Z,27.34
2022-08-29T20:42:38.824Z,27.44
2022-08-29T20:45:13.259Z,27.23
2022-08-29T20:47:44.635Z,27.18
2022-08-29T20:50:49.768Z,27.00
2022-08-29T20:53:32.584Z,27.42
2022-08-29T20:56:12.707Z,27.13
2022-08-29T20:58:46.838Z,27.12
2022-08-29T21:01:28.464Z,27.36
2022-08-29T21:04:20.984Z,27.11
2022-08-29T21:07:01.777Z,26.77
2022-08-29T21:09:33.353Z,26.75
2022-08-29T21:12:10.275Z,26.28
2022-08-29T21:14:41.206Z,26.23
2022-08-29T21:17:18.361Z,25.91
2022-08-29T21:19:47.042Z,25.63
2022-08-29T21:22:21.680Z,25.25
2022-08-29T21:24:59.306Z,25.60
2022-08-29T21:27:34.613Z,25.94
2022-08-29T21:30:15.716Z,25.79
2022-08-29T21:32:51.037Z,26.08
2022-08-29T21:35:34.278Z,26.23
2022-08-29T21:38:08.104Z,26.11
2022-08-29T21:40:52.897Z,26.10
2022-08-29T21:43:35.044Z,26.06
2022-08-29T21:46:31.701Z,26.13
2022-08-29T21:49:08.476Z,26.12
2022-08-29T21:51:47.481Z,26.03
2022-08-29T21:54:31.605Z,25.77
2022-08-29T21:57:01.282Z,25.75
2022-08-29T21:59:38.603Z,25.72
2022-08-29T22:02:22.416Z,25.53
2022-08-29T22:04:57.117Z,25.45
2022-08-29T22:07:46.861Z,25.44
2022-08-29T22:10:26.687Z,25.20
2022-08-29T22:12:56.282Z,25.51
2022-08-29T22:15:57.089Z,25.54
2022-08-29T22:18:43.297Z,25.87
2022-08-29T22:21:15.410Z,25.95
2022-08-29T22:23:50.145Z,25.90
2022-08-29T22:26:32.710Z,25.61
2022-08-29T22:29:11.666Z,25.67
2022-08-29T22:31:53.518Z,25.52
2022-08-29T22:34:32.888Z,25.50
2022-08-29T22:37:13.192Z,25.12
2022-08-29T22:39:54.684Z,25.33
2022-08-29T22:42:32.756Z,25.36
2022-08-29T22:45:09.660Z,25.61
2022-08-29T22:47:50.776Z,25.31
2022-08-29T22:50:39.167Z,25.51
2022-08-29T22:55:59.273Z,25.51
2022-08-29T22:58:43.716Z,25.46
2022-08-29T23:01:19.434Z,25.72
2022-08-29T23:03:58.211Z,25.32
2022-08-29T23:06:34.602Z,25.59
2022-08-29T23:09:09.682Z,25.26
2022-08-29T23:11:47.747Z,25.33
2022-08-29T23:14:30.625Z,25.55
2022-08-29T23:17:08.480Z,25.65
2022-08-29T23:19:51.902Z,25.40
2022-08-29T23:22:24.444Z,25.05
2022-08-29T23:25:03.317Z,25.37
2022-08-29T23:27:37.910Z,24.86
2022-08-29T23:30:19.203Z,25.26
2022-08-29T23:33:01.137Z,25.49
2022-08-29T23:35:35.886Z,25.32
2022-08-29T23:38:06.806Z,25.03
2022-08-29T23:40:46.414Z,24.70
2022-08-29T23:43:26.024Z,24.68
2022-08-29T23:46:00.980Z,24.88
2022-08-29T23:48:40.600Z,25.03
2022-08-29T23:51:19.076Z,25.10
2022-08-29T23:53:55.232Z,25.16
2022-08-29T23:56:42.626Z,25.14
2022-08-29T23:59:35.592Z,25.28
